createdAt,value
2023-02-22T00:00:59.932Z,1.30
2023-02-22T00:03:32.627Z,1.52
2023-02-22T00:06:05.143Z,1.55
2023-02-22T00:08:35.644Z,1.30
2023-02-22T00:11:08.621Z,1.48
2023-02-22T00:13:38.492Z,1.80
2023-02-22T00:18:34.279Z,1.27
2023-02-22T00:21:02.150Z,1.80
2023-02-22T00:23:32.080Z,1.88
2023-02-22T00:26:01.239Z,2.08
2023-02-22T00:28:30.872Z,1.50
2023-02-22T00:30:59.997Z,1.27
2023-02-22T00:33:27.655Z,1.40
2023-02-22T00:35:55.248Z,1.50
2023-02-22T00:38:24.082Z,1.80
2023-02-22T00:40:51.908Z,1.58
2023-02-22T00:43:19.471Z,1.35
2023-02-22T00:45:49.377Z,1.60
2023-02-22T00:48:21.063Z,1.23
2023-02-22T00:50:49.335Z,1.23
2023-02-22T00:53:17.005Z,1.30
2023-02-22T00:55:44.581Z,1.42
2023-02-22T00:58:12.897Z,2.05
2023-02-22T01:00:42.635Z,2.00
2023-02-22T01:03:13.725Z,1.60
2023-02-22T01:05:42.114Z,1.70
2023-02-22T01:08:12.937Z,1.58
2023-02-22T01:13:12.218Z,1.27
2023-02-22T01:15:42.927Z,1.33
2023-02-22T01:18:12.748Z,1.45
2023-02-22T01:20:41.102Z,1.63
2023-02-22T01:23:10.676Z,1.50
2023-02-22T01:25:39.231Z,1.65
2023-02-22T01:28:08.257Z,1.52
2023-02-22T01:30:37.178Z,1.77
2023-02-22T01:33:07.760Z,1.55
2023-02-22T01:35:38.616Z,2.28
2023-02-22T01:38:08.729Z,4.22
2023-02-22T01:40:39.570Z,1.83
2023-02-22T01:43:29.708Z,2.03
2023-02-22T01:46:03.356Z,2.30
2023-02-22T01:48:36.139Z,2.10
2023-02-22T01:51:11.144Z,2.30
2023-02-22T01:53:45.008Z,2.42
2023-02-22T01:56:15.460Z,2.20
2023-02-22T01:58:48.281Z,2.42
2023-02-22T02:01:18.071Z,2.63
2023-02-22T02:03:46.352Z,2.97
2023-02-22T02:06:20.589Z,3.17
2023-02-22T02:09:17.162Z,2.88
2023-02-22T02:11:45.958Z,3.80
2023-02-22T02:14:15.272Z,3.95
2023-02-22T02:16:51.465Z,3.47
2023-02-22T02:19:50.011Z,3.80
2023-02-22T02:22:25.396Z,8.52
2023-02-22T02:25:21.221Z,4.63
2023-02-22T02:28:09.157Z,4.38
2023-02-22T02:31:18.709Z,6.03
2023-02-22T02:34:15.211Z,4.75
2023-02-22T02:37:13.532Z,5.15
2023-02-22T02:39:47.180Z,5.38
2023-02-22T02:42:22.283Z,5.05
2023-02-22T02:45:00.481Z,4.82
2023-02-22T02:47:34.831Z,5.95
2023-02-22T02:50:08.943Z,5.60
2023-02-22T02:52:39.447Z,5.93
2023-02-22T02:55:08.554Z,6.85
2023-02-22T02:57:38.520Z,6.20
2023-02-22T03:00:22.786Z,6.80
2023-02-22T03:03:58.877Z,6.63
2023-02-22T03:06:58.281Z,7.03
2023-02-22T03:09:41.048Z,10.52
2023-02-22T03:12:15.842Z,6.85
2023-02-22T03:15:03.140Z,6.97
2023-02-22T03:17:37.437Z,7.50
2023-02-22T03:20:10.764Z,8.05
2023-02-22T03:22:58.582Z,8.05
2023-02-22T03:25:41.889Z,8.48
2023-02-22T03:28:14.829Z,8.52
2023-02-22T03:30:55.089Z,7.65
2023-02-22T03:33:33.910Z,7.78
2023-02-22T03:36:27.670Z,7.57
2023-02-22T03:38:59.404Z,7.80
2023-02-22T03:41:28.822Z,7.90
2023-02-22T03:44:09.628Z,7.68
2023-02-22T03:46:40.778Z,7.47
2023-02-22T03:49:20.417Z,6.82
2023-02-22T03:51:48.519Z,6.90
2023-02-22T03:54:16.974Z,7.07
2023-02-22T03:56:57.077Z,6.90
2023-02-22T03:59:27.775Z,6.07
2023-02-22T04:01:56.953Z,7.00
2023-02-22T04:04:25.469Z,7.68
2023-02-22T04:06:53.491Z,7.32
2023-02-22T04:09:23.299Z,7.30
2023-02-22T04:11:51.012Z,6.82
2023-02-22T04:14:18.623Z,7.10
2023-02-22T04:16:46.176Z,6.93
2023-02-22T04:19:13.840Z,7.22
2023-02-22T04:21:42.670Z,7.53
2023-02-22T04:24:17.332Z,7.25
2023-02-22T04:26:45.114Z,7.10
2023-02-22T04:29:12.890Z,7.00
2023-02-22T04:31:42.238Z,6.57
2023-02-22T04:34:10.809Z,7.17
2023-02-22T04:36:42.486Z,7.25
2023-02-22T04:39:11.158Z,7.65
2023-02-22T04:41:38.755Z,7.18
2023-02-22T04:44:07.568Z,7.40
2023-02-22T04:46:35.559Z,7.57
2023-02-22T04:49:04.135Z,6.93
2023-02-22T04:51:36.914Z,8.73
2023-02-22T04:54:13.717Z,7.28
2023-02-22T04:56:47.090Z,7.15
2023-02-22T04:59:16.529Z,8.07
2023-02-22T05:01:46.998Z,6.63
2023-02-22T05:04:15.448Z,7.45
2023-02-22T05:06:43.927Z,7.35
2023-02-22T05:09:11.484Z,7.20
2023-02-22T05:11:39.401Z,7.07
2023-02-22T05:14:07.978Z,6.97
2023-02-22T05:16:36.073Z,7.25
2023-02-22T05:19:04.444Z,8.23
2023-02-22T05:21:31.962Z,8.05
2023-02-22T05:23:59.470Z,7.13
2023-02-22T05:26:27.406Z,9.60
2023-02-22T05:28:54.924Z,7.00
2023-02-22T05:31:22.658Z,6.35
2023-02-22T05:33:51.058Z,6.90
2023-02-22T05:36:18.542Z,6.93
2023-02-22T05:38:46.100Z,7.40
2023-02-22T05:41:14.463Z,7.82
2023-02-22T05:43:42.417Z,7.00
2023-02-22T05:46:09.974Z,7.35
2023-02-22T05:48:37.888Z,6.70
2023-02-22T05:51:06.807Z,7.38
2023-02-22T05:53:34.707Z,8.53
2023-02-22T05:56:04.149Z,6.97
2023-02-22T05:58:31.694Z,6.90
2023-02-22T06:01:01.130Z,7.05
2023-02-22T06:03:29.965Z,6.50
2023-02-22T06:05:58.211Z,6.03
2023-02-22T06:08:26.930Z,6.07
2023-02-22T06:10:54.592Z,5.15
2023-02-22T06:13:25.579Z,6.03
2023-02-22T06:15:53.739Z,5.28
2023-02-22T06:18:21.361Z,5.97
2023-02-22T06:20:49.356Z,5.57
2023-02-22T06:23:16.904Z,4.63
2023-02-22T06:25:44.468Z,4.43
2023-02-22T06:28:12.561Z,3.95
2023-02-22T06:30:43.080Z,4.45
2023-02-22T06:33:12.196Z,4.75
2023-02-22T06:35:39.787Z,4.90
2023-02-22T06:38:08.746Z,4.50
2023-02-22T06:40:37.193Z,4.82
2023-02-22T06:43:05.581Z,5.40
2023-02-22T06:45:34.139Z,5.30
2023-02-22T06:48:02.250Z,4.75
2023-02-22T06:50:31.231Z,5.07
2023-02-22T06:53:04.513Z,5.53
2023-02-22T06:55:34.747Z,5.15
2023-02-22T06:58:04.865Z,5.50
2023-02-22T07:00:33.595Z,5.35
2023-02-22T07:03:01.485Z,4.85
2023-02-22T07:05:29.585Z,5.80
2023-02-22T07:08:04.888Z,4.97
2023-02-22T07:10:34.546Z,5.70
2023-02-22T07:13:09.382Z,5.45
2023-02-22T07:15:39.268Z,5.88
2023-02-22T07:18:07.474Z,5.85
2023-02-22T07:20:39.284Z,5.20
2023-02-22T07:23:07.677Z,5.88
2023-02-22T07:25:35.804Z,6.13
2023-02-22T07:28:03.532Z,5.53
2023-02-22T07:30:34.341Z,5.57
2023-02-22T07:33:05.692Z,6.28
2023-02-22T07:35:46.594Z,6.88
2023-02-22T07:38:17.635Z,5.88
2023-02-22T07:40:45.641Z,6.50
2023-02-22T07:43:15.485Z,6.82
2023-02-22T07:45:44.177Z,6.95
2023-02-22T07:48:12.939Z,7.50
2023-02-22T07:50:41.561Z,6.63
2023-02-22T07:53:18.063Z,7.07
2023-02-22T07:55:51.023Z,6.70
2023-02-22T07:58:21.630Z,6.97
2023-02-22T08:00:49.729Z,7.80
2023-02-22T08:03:20.159Z,7.50
2023-02-22T08:05:53.377Z,7.95
2023-02-22T08:08:21.275Z,8.10
2023-02-22T08:10:50.412Z,7.75
2023-02-22T08:13:19.489Z,8.73
2023-02-22T08:15:52.497Z,7.40
2023-02-22T08:18:21.645Z,8.23
2023-02-22T08:20:54.495Z,8.32
2023-02-22T08:23:25.881Z,9.68
2023-02-22T08:25:54.072Z,9.10
2023-02-22T08:28:24.534Z,8.90
2023-02-22T08:30:53.036Z,8.93
2023-02-22T08:33:21.647Z,11.38
2023-02-22T08:35:50.098Z,10.20
2023-02-22T08:38:27.951Z,9.70
2023-02-22T08:40:56.583Z,9.60
2023-02-22T08:43:24.791Z,8.75
2023-02-22T08:45:56.164Z,9.25
2023-02-22T08:48:25.029Z,10.15
2023-02-22T08:50:55.015Z,10.95
2023-02-22T08:53:22.665Z,10.40
2023-02-22T08:55:50.195Z,10.13
2023-02-22T08:58:17.869Z,10.32
2023-02-22T09:00:45.524Z,9.13
2023-02-22T09:03:14.807Z,9.75
2023-02-22T09:05:43.993Z,10.95
2023-02-22T09:08:13.057Z,10.23
2023-02-22T09:10:41.033Z,10.20
2023-02-22T09:13:14.200Z,10.07
2023-02-22T09:15:43.188Z,10.68
2023-02-22T09:18:14.642Z,10.13
2023-02-22T09:20:43.358Z,9.98
2023-02-22T09:23:11.538Z,9.10
2023-02-22T09:25:43.558Z,9.55
2023-02-22T09:28:11.454Z,10.50
2023-02-22T09:30:39.320Z,9.07
2023-02-22T09:33:16.132Z,10.57
2023-02-22T09:35:49.839Z,9.40
2023-02-22T09:38:21.329Z,10.40
2023-02-22T09:40:52.290Z,12.07
2023-02-22T09:43:44.551Z,10.13
2023-02-22T09:46:24.725Z,10.13
2023-02-22T09:49:20.563Z,10.95
2023-02-22T09:51:54.145Z,10.85
2023-02-22T09:54:54.580Z,11.50
2023-02-22T09:57:35.560Z,11.65
2023-02-22T10:00:20.464Z,10.65
2023-02-22T10:03:17.592Z,10.00
2023-02-22T10:05:53.775Z,10.90
2023-02-22T10:08:21.874Z,11.02
2023-02-22T10:11:06.752Z,10.75
2023-02-22T10:13:51.280Z,9.98
2023-02-22T10:16:40.520Z,9.07
2023-02-22T10:19:27.925Z,10.95
2023-02-22T10:22:37.565Z,8.68
2023-02-22T10:25:19.334Z,9.60
2023-02-22T10:27:56.807Z,9.80
2023-02-22T10:30:33.999Z,9.70
2023-02-22T10:33:05.434Z,9.35
2023-02-22T10:35:36.282Z,9.90
2023-02-22T10:38:12.825Z,8.60
2023-02-22T10:40:43.913Z,8.77
2023-02-22T10:43:11.727Z,8.75
2023-02-22T10:45:39.633Z,8.68
2023-02-22T10:48:14.086Z,9.10
2023-02-22T10:50:44.298Z,8.30
2023-02-22T10:53:18.207Z,8.80
2023-02-22T10:56:06.303Z,7.53
2023-02-22T10:59:04.495Z,8.63
2023-02-22T11:01:32.508Z,8.48
2023-02-22T11:04:19.548Z,8.82
2023-02-22T11:07:06.878Z,7.68
2023-02-22T11:10:11.772Z,7.88
2023-02-22T11:12:47.915Z,8.57
2023-02-22T11:15:24.352Z,8.40
2023-02-22T11:17:55.358Z,9.52
2023-02-22T11:20:25.804Z,9.55
2023-02-22T11:22:56.020Z,8.07
2023-02-22T11:25:36.216Z,7.82
2023-02-22T11:28:10.582Z,7.55
2023-02-22T11:30:38.763Z,7.38
2023-02-22T11:33:23.761Z,8.65
2023-02-22T11:35:54.559Z,9.18
2023-02-22T11:38:30.060Z,7.53
2023-02-22T11:41:20.505Z,7.65
2023-02-22T11:43:50.410Z,8.93
2023-02-22T11:46:33.517Z,7.82
2023-02-22T11:49:10.635Z,7.95
2023-02-22T11:52:01.180Z,8.20
2023-02-22T11:54:44.124Z,8.70
2023-02-22T11:57:22.345Z,9.35
2023-02-22T12:00:26.021Z,9.13
2023-02-22T12:03:15.542Z,9.07
2023-02-22T12:08:37.798Z,14.02
2023-02-22T12:11:34.850Z,8.18
2023-02-22T12:14:24.131Z,8.05
2023-02-22T12:17:26.332Z,7.93
2023-02-22T12:20:13.362Z,8.20
2023-02-22T12:23:06.890Z,8.52
2023-02-22T12:25:38.983Z,9.63
2023-02-22T12:28:25.569Z,8.57
2023-02-22T12:31:11.904Z,9.15
2023-02-22T12:33:50.709Z,8.45
2023-02-22T12:36:23.024Z,8.45
2023-02-22T12:39:07.565Z,8.45
2023-02-22T12:41:42.696Z,9.55
2023-02-22T12:44:31.660Z,8.95
2023-02-22T12:47:01.575Z,8.90
2023-02-22T12:49:45.333Z,9.00
2023-02-22T12:52:21.909Z,9.23
2023-02-22T12:55:06.882Z,9.35
2023-02-22T12:57:39.443Z,8.55
2023-02-22T13:00:17.926Z,9.25
2023-02-22T13:02:55.619Z,8.63
2023-02-22T13:05:23.547Z,9.25
2023-02-22T13:08:06.401Z,7.20
2023-02-22T13:10:49.372Z,6.90
2023-02-22T13:13:30.291Z,7.50
2023-02-22T13:16:17.155Z,8.23
2023-02-22T13:18:57.028Z,7.10
2023-02-22T13:21:43.659Z,7.18
2023-02-22T13:24:46.150Z,6.00
2023-02-22T13:27:21.925Z,5.75
2023-02-22T13:29:57.648Z,6.18
2023-02-22T13:32:54.608Z,6.78
2023-02-22T13:35:49.718Z,6.53
2023-02-22T13:38:24.176Z,6.60
2023-02-22T13:41:01.102Z,5.95
2023-02-22T13:44:16.732Z,6.70
2023-02-22T13:46:56.256Z,6.05
2023-02-22T13:50:00.270Z,6.18
2023-02-22T13:52:34.769Z,6.07
2023-02-22T13:55:16.261Z,5.72
2023-02-22T13:57:48.734Z,5.57
2023-02-22T14:00:17.758Z,6.25
2023-02-22T14:03:09.181Z,5.80
2023-02-22T14:05:39.919Z,5.90
2023-02-22T14:08:31.742Z,5.88
2023-02-22T14:11:06.793Z,8.68
2023-02-22T14:13:53.829Z,6.53
2023-02-22T14:16:24.410Z,6.50
2023-02-22T14:19:06.676Z,6.35
2023-02-22T14:21:35.258Z,5.95
2023-02-22T14:24:14.099Z,6.50
2023-02-22T14:26:58.189Z,5.88
2023-02-22T14:29:26.530Z,6.97
2023-02-22T14:32:02.553Z,6.78
2023-02-22T14:34:52.070Z,6.65
2023-02-22T14:37:27.719Z,6.00
2023-02-22T14:40:25.980Z,6.00
2023-02-22T14:43:15.050Z,7.13
2023-02-22T14:46:01.470Z,7.05
2023-02-22T14:48:39.651Z,6.10
2023-02-22T14:51:22.214Z,6.80
2023-02-22T14:54:01.259Z,6.90
2023-02-22T14:56:36.402Z,7.30
2023-02-22T14:59:21.955Z,7.35
2023-02-22T15:02:05.653Z,6.60
2023-02-22T15:04:38.047Z,6.22
2023-02-22T15:07:22.037Z,6.25
2023-02-22T15:09:50.141Z,6.45
2023-02-22T15:12:31.139Z,6.28
2023-02-22T15:15:16.931Z,6.22
2023-02-22T15:17:46.288Z,6.88
2023-02-22T15:20:17.279Z,6.97
2023-02-22T15:22:45.267Z,7.43
2023-02-22T15:25:12.950Z,7.45
2023-02-22T15:27:46.994Z,5.75
2023-02-22T15:30:27.757Z,8.70
2023-02-22T15:33:04.121Z,6.30
2023-02-22T15:35:33.761Z,6.68
2023-02-22T15:38:04.219Z,5.80
2023-02-22T15:40:33.389Z,5.32
2023-02-22T15:43:08.958Z,5.82
2023-02-22T15:45:43.199Z,5.45
2023-02-22T15:48:11.294Z,5.63
2023-02-22T15:50:39.361Z,4.95
2023-02-22T15:53:33.821Z,5.32
2023-02-22T15:56:06.045Z,5.50
2023-02-22T15:58:37.057Z,5.72
2023-02-22T16:01:08.328Z,5.90
2023-02-22T16:03:45.023Z,5.55
2023-02-22T16:06:21.095Z,6.30
2023-02-22T16:08:55.048Z,6.43
2023-02-22T16:11:35.638Z,6.85
2023-02-22T16:14:15.572Z,6.70
2023-02-22T16:16:43.583Z,6.25
2023-02-22T16:19:28.795Z,6.78
2023-02-22T16:22:02.966Z,7.78
2023-02-22T16:24:34.045Z,7.32
2023-02-22T16:27:10.865Z,6.30
2023-02-22T16:29:38.578Z,6.32
2023-02-22T16:32:06.365Z,6.25
2023-02-22T16:34:34.023Z,6.22
2023-02-22T16:37:01.919Z,5.75
2023-02-22T16:39:32.415Z,6.53
2023-02-22T16:42:04.102Z,5.70
2023-02-22T16:44:32.067Z,6.82
2023-02-22T16:47:00.628Z,6.75
2023-02-22T16:49:28.248Z,6.88
2023-02-22T16:51:55.747Z,6.38
2023-02-22T16:54:41.607Z,6.35
2023-02-22T16:57:17.810Z,6.60
2023-02-22T16:59:48.387Z,6.07
2023-02-22T17:02:16.523Z,6.28
2023-02-22T17:04:49.440Z,6.55
2023-02-22T17:07:24.081Z,7.15
2023-02-22T17:09:58.426Z,12.95
2023-02-22T17:12:31.970Z,6.88
2023-02-22T17:14:59.594Z,7.03
2023-02-22T17:17:27.616Z,6.97
2023-02-22T17:19:55.818Z,6.90
2023-02-22T17:22:23.339Z,7.20
2023-02-22T17:24:50.834Z,7.35
2023-02-22T17:27:18.676Z,7.40
2023-02-22T17:29:47.958Z,7.18
2023-02-22T17:32:15.626Z,7.68
2023-02-22T17:34:43.174Z,6.25
2023-02-22T17:37:11.257Z,7.20
2023-02-22T17:39:41.831Z,6.55
2023-02-22T17:42:09.759Z,6.22
2023-02-22T17:44:37.874Z,7.18
2023-02-22T17:47:05.498Z,7.18
2023-02-22T17:49:33.528Z,6.50
2023-02-22T17:52:06.366Z,7.15
2023-02-22T17:54:34.481Z,7.22
2023-02-22T17:57:02.113Z,6.95
2023-02-22T17:59:30.803Z,8.25
2023-02-22T18:01:58.292Z,7.72
2023-02-22T18:04:25.856Z,6.72
2023-02-22T18:06:53.505Z,6.57
2023-02-22T18:09:21.152Z,6.32
2023-02-22T18:11:48.954Z,7.43
2023-02-22T18:14:16.677Z,6.15
2023-02-22T18:16:46.912Z,6.53
2023-02-22T18:19:20.426Z,6.70
2023-02-22T18:21:49.831Z,6.90
2023-02-22T18:24:18.553Z,6.95
2023-02-22T18:26:46.294Z,7.47
2023-02-22T18:29:13.842Z,7.18
2023-02-22T18:31:41.854Z,6.32
2023-02-22T18:34:13.223Z,6.68
2023-02-22T18:36:40.928Z,13.00
2023-02-22T18:39:11.826Z,6.82
2023-02-22T18:41:39.829Z,6.55
2023-02-22T18:44:10.494Z,6.93
2023-02-22T18:46:39.448Z,6.93
2023-02-22T18:49:07.190Z,6.82
2023-02-22T18:51:35.496Z,7.03
2023-02-22T18:54:03.411Z,6.78
2023-02-22T18:56:31.130Z,6.65
2023-02-22T18:59:01.344Z,8.18
2023-02-22T19:01:30.704Z,7.30
2023-02-22T19:03:59.394Z,8.75
2023-02-22T19:06:26.946Z,6.57
2023-02-22T19:08:55.990Z,6.72
2023-02-22T19:11:24.642Z,9.68
2023-02-22T19:16:27.124Z,7.20
2023-02-22T19:18:58.224Z,7.32
2023-02-22T19:21:28.237Z,6.60
2023-02-22T19:24:01.300Z,8.35
2023-02-22T19:26:29.774Z,8.30
2023-02-22T19:28:58.845Z,6.97
2023-02-22T19:31:33.824Z,7.63
2023-02-22T19:34:04.057Z,8.48
2023-02-22T19:36:32.678Z,8.25
2023-02-22T19:39:03.002Z,7.28
2023-02-22T19:41:31.242Z,8.70
2023-02-22T19:43:59.794Z,8.02
2023-02-22T19:46:27.533Z,9.32
2023-02-22T19:48:55.537Z,8.52
2023-02-22T19:51:27.813Z,8.40
2023-02-22T19:54:02.595Z,8.52
2023-02-22T19:56:31.692Z,8.07
2023-02-22T19:59:09.368Z,7.45
2023-02-22T20:01:38.475Z,8.13
2023-02-22T20:04:11.481Z,22.52
2023-02-22T20:06:41.969Z,8.63
2023-02-22T20:09:15.280Z,6.80
2023-02-22T20:11:42.828Z,6.85
2023-02-22T20:14:17.390Z,7.05
2023-02-22T20:16:45.140Z,6.50
2023-02-22T20:19:13.753Z,6.75
2023-02-22T20:21:41.363Z,6.83
2023-02-22T20:24:12.123Z,6.75
2023-02-22T20:26:40.303Z,7.03
2023-02-22T20:29:13.279Z,6.20
2023-02-22T20:31:42.857Z,7.10
2023-02-22T20:34:13.086Z,6.50
2023-02-22T20:36:41.989Z,6.88
2023-02-22T20:39:13.540Z,6.57
2023-02-22T20:41:44.721Z,7.22
2023-02-22T20:44:18.525Z,7.55
2023-02-22T20:46:48.021Z,7.25
2023-02-22T20:49:18.936Z,7.43
2023-02-22T20:51:48.276Z,6.85
2023-02-22T20:54:16.967Z,8.45
2023-02-22T20:56:45.976Z,7.63
2023-02-22T20:59:17.169Z,6.32
2023-02-22T21:01:45.117Z,8.55
2023-02-22T21:04:13.589Z,7.15
2023-02-22T21:06:41.524Z,7.72
2023-02-22T21:09:17.806Z,7.85
2023-02-22T21:11:46.741Z,6.30
2023-02-22T21:14:18.810Z,6.55
2023-02-22T21:16:49.163Z,6.00
2023-02-22T21:19:26.659Z,6.43
2023-02-22T21:22:01.279Z,8.40
2023-02-22T21:24:32.401Z,6.40
2023-02-22T21:27:00.325Z,7.07
2023-02-22T21:29:29.577Z,6.50
2023-02-22T21:31:57.418Z,6.47
2023-02-22T21:34:26.053Z,6.28
2023-02-22T21:36:53.826Z,6.28
2023-02-22T21:39:22.743Z,5.32
2023-02-22T21:41:52.035Z,6.18
2023-02-22T21:44:19.671Z,5.50
2023-02-22T21:46:50.687Z,6.28
2023-02-22T21:49:22.583Z,5.85
2023-02-22T21:51:51.849Z,6.53
2023-02-22T21:54:20.280Z,5.75
2023-02-22T21:56:48.073Z,6.03
2023-02-22T21:59:23.473Z,6.35
2023-02-22T22:01:56.210Z,6.13
2023-02-22T22:04:27.689Z,5.85
2023-02-22T22:06:59.221Z,6.75
2023-02-22T22:09:37.808Z,6.32
2023-02-22T22:12:10.728Z,7.00
2023-02-22T22:14:44.625Z,18.33
2023-02-22T22:17:12.874Z,7.68
2023-02-22T22:19:41.632Z,5.30
2023-02-22T22:22:09.185Z,6.45
2023-02-22T22:24:38.126Z,5.57
2023-02-22T22:27:09.618Z,5.88
2023-02-22T22:29:37.501Z,6.43
2023-02-22T22:32:06.615Z,6.32
2023-02-22T22:34:38.038Z,5.80
2023-02-22T22:37:05.662Z,6.87
2023-02-22T22:39:33.201Z,6.22
2023-02-22T22:42:00.817Z,6.63
2023-02-22T22:44:32.967Z,6.60
2023-02-22T22:47:06.011Z,7.00
2023-02-22T22:49:40.441Z,6.65
2023-02-22T22:52:08.838Z,7.10
2023-02-22T22:54:41.278Z,7.20
2023-02-22T22:57:09.718Z,7.05
2023-02-22T22:59:37.324Z,6.85
2023-02-22T23:02:10.569Z,6.90
2023-02-22T23:04:38.430Z,6.45
2023-02-22T23:07:07.242Z,6.53
2023-02-22T23:09:37.600Z,7.93
2023-02-22T23:12:16.787Z,6.68
2023-02-22T23:14:52.035Z,6.80
2023-02-22T23:17:31.467Z,6.63
2023-02-22T23:20:00.445Z,6.95
2023-02-22T23:22:28.048Z,7.70
2023-02-22T23:25:00.017Z,6.13
2023-02-22T23:27:28.213Z,6.50
2023-02-22T23:29:55.983Z,7.18
2023-02-22T23:32:23.854Z,6.65
2023-02-22T23:34:51.332Z,6.57
2023-02-22T23:37:20.853Z,6.78
2023-02-22T23:39:49.056Z,6.63
2023-02-22T23:42:16.928Z,6.97
2023-02-22T23:44:47.413Z,6.28
2023-02-22T23:47:16.192Z,7.53
2023-02-22T23:49:49.363Z,6.75
2023-02-22T23:52:24.243Z,6.47
2023-02-22T23:54:53.978Z,6.65
2023-02-22T23:57:21.843Z,6.50
2023-02-22T23:59:51.577Z,6.20
